Time;durP1;ratioP1;P1;durP2;ratioP2;P2;SDS_P1;SDS_P2;PMS_P1;PMS_P2;Temp;Humidity;BMP_temperature;BMP_pressure;BME280_temperature;BME280_humidity;BME280_pressure;Samples;Min_cycle;Max_cycle;Signal;HPM_P1;HPM_P2
2020/12/31 00:02:22;;;;;;;3.00;2.45;;;3.10;99.90;;;;;;1954319;71;21042;-74
2020/12/31 00:04:48;;;;;;;2.45;2.10;;;3.10;99.90;;;;;;1959039;70;21156;-75
2020/12/31 00:07:14;;;;;;;2.58;1.95;;;3.20;99.90;;;;;;1945022;70;21139;-74
2020/12/31 00:09:40;;;;;;;2.47;2.12;;;3.20;99.90;;;;;;1949843;70;21061;-75
2020/12/31 00:12:06;;;;;;;2.00;1.82;;;3.20;99.90;;;;;;1966801;71;21078;-74
2020/12/31 00:14:33;;;;;;;2.60;1.98;;;3.10;99.90;;;;;;1954815;70;21067;-74
2020/12/31 00:16:59;;;;;;;2.75;1.82;;;3.20;99.90;;;;;;1968102;70;21090;-74
2020/12/31 00:19:25;;;;;;;2.85;1.77;;;3.20;99.90;;;;;;1960230;71;21069;-74
2020/12/31 00:21:51;;;;;;;2.15;1.80;;;3.30;99.90;;;;;;1949946;71;21584;-72
2020/12/31 00:24:17;;;;;;;2.27;2.08;;;3.30;99.90;;;;;;1957366;70;21502;-75
2020/12/31 00:26:43;;;;;;;2.92;1.70;;;3.20;99.90;;;;;;1959956;71;21580;-75
2020/12/31 00:29:09;;;;;;;2.27;1.95;;;3.30;99.90;;;;;;1965049;71;21068;-75
2020/12/31 00:31:35;;;;;;;2.33;1.82;;;3.30;99.90;;;;;;1956143;72;21075;-75
2020/12/31 00:34:02;;;;;;;2.95;2.12;;;3.20;99.90;;;;;;1975792;71;21113;-75
2020/12/31 00:36:28;;;;;;;2.65;2.00;;;3.20;99.90;;;;;;1984057;71;21073;-74
2020/12/31 00:38:54;;;;;;;2.00;1.80;;;3.10;99.90;;;;;;1969377;70;21051;-74
2020/12/31 00:41:20;;;;;;;3.35;2.08;;;3.10;99.90;;;;;;1976858;70;21066;-72
2020/12/31 00:43:46;;;;;;;2.62;1.72;;;2.90;99.90;;;;;;1947420;70;21050;-72
2020/12/31 00:46:12;;;;;;;3.10;1.72;;;2.90;99.90;;;;;;1964198;70;21467;-73
2020/12/31 00:48:38;;;;;;;2.52;1.55;;;2.90;99.90;;;;;;1947522;71;21447;-72
2020/12/31 00:51:04;;;;;;;3.02;2.00;;;2.80;99.90;;;;;;1961903;71;21067;-71
2020/12/31 00:53:30;;;;;;;1.67;1.55;;;2.70;99.90;;;;;;1952436;70;21056;-71
2020/12/31 00:55:57;;;;;;;2.22;1.70;;;2.50;99.90;;;;;;1952624;70;21036;-71
2020/12/31 00:58:23;;;;;;;2.22;2.00;;;2.50;99.90;;;;;;1963099;71;21063;-72
2020/12/31 01:00:49;;;;;;;2.33;1.75;;;2.40;99.90;;;;;;1964855;71;21192;-73
2020/12/31 01:03:15;;;;;;;3.10;2.30;;;2.30;99.90;;;;;;1960589;71;21074;-73
2020/12/31 01:05:41;;;;;;;2.35;1.90;;;2.30;99.90;;;;;;1956484;71;21070;-73
2020/12/31 01:08:07;;;;;;;2.15;1.90;;;2.10;99.90;;;;;;1949031;72;21131;-72
2020/12/31 01:10:33;;;;;;;3.10;2.20;;;1.90;99.90;;;;;;1967920;71;21067;-73
2020/12/31 01:12:59;;;;;;;2.75;2.10;;;1.90;99.90;;;;;;1961218;70;21039;-74
2020/12/31 01:15:26;;;;;;;2.20;1.72;;;1.90;99.90;;;;;;1958412;71;21059;-73
2020/12/31 01:17:52;;;;;;;3.80;2.10;;;1.90;99.90;;;;;;1957338;72;21178;-72
2020/12/31 01:20:18;;;;;;;3.10;1.98;;;1.90;99.90;;;;;;1960597;72;21477;-73
2020/12/31 01:22:46;;;;;;;2.92;1.80;;;1.90;99.90;;;;;;1963668;70;21478;-73
2020/12/31 01:25:12;;;;;;;2.72;2.02;;;1.90;99.90;;;;;;1959089;70;21140;-73
2020/12/31 01:27:38;;;;;;;2.12;1.57;;;1.90;99.90;;;;;;1977369;70;21062;-72
2020/12/31 01:30:04;;;;;;;2.92;1.98;;;1.80;99.90;;;;;;1962219;71;21152;-72
2020/12/31 01:32:30;;;;;;;4.40;2.37;;;1.90;99.90;;;;;;1959951;72;21270;-72
2020/12/31 01:34:56;;;;;;;2.77;1.85;;;1.90;99.90;;;;;;1973647;72;21043;-72
2020/12/31 01:37:22;;;;;;;2.45;1.80;;;1.80;99.90;;;;;;1945457;71;21070;-72
2020/12/31 01:39:49;;;;;;;1.98;1.80;;;1.80;99.90;;;;;;1952638;71;21132;-72
2020/12/31 01:42:15;;;;;;;2.00;1.80;;;1.80;99.90;;;;;;1942197;71;21140;-72
2020/12/31 01:44:41;;;;;;;1.60;1.50;;;1.80;99.90;;;;;;1946913;70;21057;-72
2020/12/31 01:47:07;;;;;;;1.98;1.65;;;1.80;99.90;;;;;;1951660;72;21132;-72
2020/12/31 01:49:33;;;;;;;2.42;1.60;;;1.80;99.90;;;;;;1960775;70;21071;-72
2020/12/31 01:51:59;;;;;;;1.87;1.72;;;1.70;99.90;;;;;;1961288;72;21082;-71
2020/12/31 01:54:25;;;;;;;2.55;1.92;;;1.80;99.90;;;;;;1958410;71;21460;-73
2020/12/31 01:56:52;;;;;;;1.67;1.50;;;1.80;99.90;;;;;;1954441;71;21069;-72
2020/12/31 01:59:18;;;;;;;2.25;1.87;;;1.80;99.90;;;;;;1955375;71;21162;-72
2020/12/31 02:01:44;;;;;;;3.67;2.30;;;1.80;99.90;;;;;;1955313;71;21115;-72
2020/12/31 02:04:10;;;;;;;2.52;1.90;;;1.80;99.90;;;;;;1947266;72;21074;-73
2020/12/31 02:06:36;;;;;;;2.83;1.98;;;1.70;99.90;;;;;;1947587;70;21136;-72
2020/12/31 02:09:02;;;;;;;3.15;2.30;;;1.70;99.90;;;;;;1961188;70;21078;-72
2020/12/31 02:11:28;;;;;;;3.20;2.10;;;1.70;99.90;;;;;;1950653;72;21230;-73
2020/12/31 02:13:54;;;;;;;4.05;1.95;;;1.60;99.90;;;;;;1956939;72;21152;-72
2020/12/31 02:16:21;;;;;;;2.30;1.80;;;1.70;99.90;;;;;;1969252;71;21420;-73
2020/12/31 02:18:47;;;;;;;2.70;2.20;;;1.80;99.90;;;;;;1972929;70;21481;-73
2020/12/31 02:21:13;;;;;;;2.30;1.85;;;1.90;99.90;;;;;;1956503;70;21074;-72
2020/12/31 02:23:39;;;;;;;3.27;2.17;;;1.80;99.90;;;;;;1952425;72;21119;-72
2020/12/31 02:26:05;;;;;;;2.90;2.15;;;1.80;99.90;;;;;;1983937;71;21066;-72
2020/12/31 02:28:31;;;;;;;3.25;2.37;;;1.80;99.90;;;;;;1915659;73;21068;-72
2020/12/31 02:30:57;;;;;;;3.30;2.00;;;1.70;99.90;;;;;;1971567;71;21120;-72
2020/12/31 02:33:23;;;;;;;2.47;2.27;;;1.70;99.90;;;;;;1988281;71;21141;-71
2020/12/31 02:35:49;;;;;;;3.15;1.80;;;1.70;99.90;;;;;;1986424;72;21027;-72
2020/12/31 02:38:16;;;;;;;3.35;2.30;;;1.90;99.90;;;;;;1981342;71;21050;-73
2020/12/31 02:40:42;;;;;;;3.30;2.08;;;1.80;99.90;;;;;;1924518;73;21140;-72
2020/12/31 02:43:08;;;;;;;3.05;2.00;;;1.90;99.90;;;;;;1932740;72;21067;-72
2020/12/31 02:45:34;;;;;;;2.67;2.20;;;1.90;99.90;;;;;;1940537;72;21070;-73
2020/12/31 02:48:00;;;;;;;1.98;1.60;;;1.80;99.90;;;;;;1937548;72;21117;-73
2020/12/31 02:50:26;;;;;;;4.15;1.95;;;1.90;99.90;;;;;;1950992;72;21070;-72
2020/12/31 02:52:52;;;;;;;3.72;1.95;;;1.90;99.90;;;;;;1950144;73;21063;-73
2020/12/31 02:55:19;;;;;;;2.62;1.92;;;1.80;99.90;;;;;;1940329;72;21041;-72
2020/12/31 02:57:45;;;;;;;1.90;1.60;;;1.90;99.90;;;;;;1949511;71;21041;-73
2020/12/31 03:00:11;;;;;;;3.67;1.60;;;1.90;99.90;;;;;;1951686;73;21074;-73
2020/12/31 03:02:37;;;;;;;1.50;1.40;;;1.80;99.90;;;;;;1960824;72;21104;-72
2020/12/31 03:05:03;;;;;;;1.75;1.50;;;1.90;99.90;;;;;;1959063;72;21072;-72
2020/12/31 03:07:29;;;;;;;2.00;1.80;;;1.90;99.90;;;;;;1935528;72;21145;-73
2020/12/31 03:09:55;;;;;;;4.22;1.80;;;1.90;99.90;;;;;;1946216;71;21075;-73
2020/12/31 03:12:21;;;;;;;2.37;1.72;;;1.90;99.90;;;;;;1950100;73;21130;-73
2020/12/31 03:14:48;;;;;;;1.45;1.30;;;1.80;99.90;;;;;;1935762;73;21185;-72
2020/12/31 03:17:14;;;;;;;2.62;1.72;;;1.90;99.90;;;;;;1931834;73;21031;-73
2020/12/31 03:19:40;;;;;;;1.75;1.50;;;1.90;99.90;;;;;;1945888;73;21043;-73
2020/12/31 03:22:06;;;;;;;2.70;1.90;;;1.80;99.90;;;;;;1923762;72;21133;-72
2020/12/31 03:24:32;;;;;;;2.35;1.62;;;1.70;99.90;;;;;;1957062;73;21124;-72
2020/12/31 03:26:58;;;;;;;1.90;1.65;;;1.70;99.90;;;;;;1955429;72;21145;-73
2020/12/31 03:29:24;;;;;;;1.47;1.37;;;1.60;99.90;;;;;;1949206;72;21077;-73
2020/12/31 03:31:50;;;;;;;2.87;1.62;;;1.50;99.90;;;;;;1950189;72;21075;-72
2020/12/31 03:34:16;;;;;;;2.00;1.32;;;1.40;99.90;;;;;;1949026;71;21080;-73
2020/12/31 03:36:43;;;;;;;2.72;1.72;;;1.20;99.90;;;;;;1943859;72;21589;-73
2020/12/31 03:39:09;;;;;;;2.22;1.57;;;1.10;99.90;;;;;;1938495;72;21458;-73
2020/12/31 03:41:35;;;;;;;2.35;1.75;;;1.00;99.90;;;;;;1952738;72;21173;-73
2020/12/31 03:44:01;;;;;;;1.87;1.60;;;0.80;99.90;;;;;;1943559;72;21064;-71
2020/12/31 03:46:27;;;;;;;2.47;1.82;;;0.70;99.90;;;;;;1950785;71;21070;-72
2020/12/31 03:48:53;;;;;;;2.37;1.60;;;0.80;99.90;;;;;;1942671;72;21128;-73
2020/12/31 03:51:19;;;;;;;2.20;1.32;;;0.80;99.90;;;;;;1912300;73;21145;-73
2020/12/31 03:53:45;;;;;;;2.00;1.70;;;0.80;99.90;;;;;;1931813;73;21031;-73
2020/12/31 03:56:12;;;;;;;2.00;1.57;;;0.70;99.90;;;;;;1934371;73;21189;-72
2020/12/31 03:58:38;;;;;;;2.70;1.47;;;0.70;99.90;;;;;;1939686;72;21068;-73
2020/12/31 04:01:04;;;;;;;2.45;1.87;;;0.70;99.90;;;;;;1944501;72;21080;-72
2020/12/31 04:03:30;;;;;;;3.05;1.80;;;0.70;99.90;;;;;;1950014;73;21068;-72
2020/12/31 04:05:56;;;;;;;3.10;2.00;;;0.60;99.90;;;;;;1940578;72;21152;-72
2020/12/31 04:08:22;;;;;;;2.02;1.45;;;0.50;99.90;;;;;;1949135;73;21196;-73
2020/12/31 04:10:48;;;;;;;2.00;1.47;;;0.50;99.90;;;;;;1921780;72;21475;-72
2020/12/31 04:13:14;;;;;;;2.50;1.67;;;0.40;99.90;;;;;;1985088;72;21825;-73
2020/12/31 04:15:40;;;;;;;2.42;1.72;;;0.50;99.90;;;;;;1985531;72;21038;-72
2020/12/31 04:18:07;;;;;;;4.55;2.15;;;0.40;99.90;;;;;;1991187;71;21058;-72
2020/12/31 04:20:34;;;;;;;1.45;1.35;;;0.40;99.90;;;;;;1996059;71;21172;-72
2020/12/31 04:23:00;;;;;;;2.55;1.80;;;0.40;99.90;;;;;;1975630;71;21495;-73
2020/12/31 04:25:26;;;;;;;2.02;1.72;;;0.40;99.90;;;;;;1994324;71;21466;-73
2020/12/31 04:27:53;;;;;;;1.77;1.62;;;0.40;99.90;;;;;;1994348;71;21476;-73
2020/12/31 04:30:19;;;;;;;2.12;1.72;;;0.40;99.90;;;;;;1990883;71;21042;-73
2020/12/31 04:32:45;;;;;;;1.92;1.70;;;0.30;99.90;;;;;;1990605;71;21043;-72
2020/12/31 04:35:11;;;;;;;2.58;1.77;;;0.10;99.90;;;;;;1968736;72;21054;-73
2020/12/31 04:37:37;;;;;;;3.05;1.80;;;0.10;99.90;;;;;;1965105;72;21058;-73
2020/12/31 04:40:03;;;;;;;1.82;1.50;;;0.20;99.90;;;;;;1981306;71;21120;-73
2020/12/31 04:42:29;;;;;;;3.20;1.82;;;0.10;99.90;;;;;;1988666;71;21058;-72
2020/12/31 04:44:55;;;;;;;3.25;2.00;;;-0.10;99.90;;;;;;1981142;71;21023;-72
2020/12/31 04:47:22;;;;;;;2.52;1.60;;;-0.10;99.90;;;;;;1979793;71;21066;-73
2020/12/31 04:49:48;;;;;;;2.35;1.98;;;-0.10;99.90;;;;;;1958839;72;21050;-72
2020/12/31 04:52:15;;;;;;;1.80;1.62;;;0.00;99.90;;;;;;1956710;71;21132;-72
2020/12/31 04:54:42;;;;;;;4.60;2.17;;;0.00;99.90;;;;;;1949476;70;21073;-73
2020/12/31 04:57:08;;;;;;;1.70;1.60;;;-0.10;99.90;;;;;;1960504;70;21141;-73
2020/12/31 04:59:34;;;;;;;2.12;1.70;;;-0.20;99.90;;;;;;1956107;72;21066;-72
2020/12/31 05:02:00;;;;;;;2.30;1.70;;;-0.30;99.90;;;;;;1955085;70;21144;-72
2020/12/31 05:04:26;;;;;;;3.40;1.90;;;-0.30;99.90;;;;;;1970200;70;21216;-72
2020/12/31 05:06:52;;;;;;;1.15;1.12;;;-0.30;99.90;;;;;;1971770;71;21465;-71
2020/12/31 05:09:18;;;;;;;2.02;1.52;;;-0.40;99.90;;;;;;1960466;71;21535;-71
2020/12/31 05:11:44;;;;;;;2.20;1.57;;;-0.40;99.90;;;;;;1945511;70;21566;-72
2020/12/31 05:14:11;;;;;;;1.82;1.67;;;-0.50;99.90;;;;;;1963986;70;21470;-72
2020/12/31 05:16:37;;;;;;;1.60;1.37;;;-0.50;99.90;;;;;;1962321;71;21467;-72
2020/12/31 05:19:03;;;;;;;1.50;1.40;;;-0.50;99.90;;;;;;1962819;72;21035;-72
2020/12/31 05:21:29;;;;;;;2.33;1.72;;;-0.60;99.90;;;;;;1955421;71;21069;-72
2020/12/31 05:23:55;;;;;;;1.60;1.50;;;-0.40;99.90;;;;;;1974083;70;21102;-72
2020/12/31 05:26:21;;;;;;;3.75;1.90;;;-0.30;99.90;;;;;;1951991;72;21070;-73
2020/12/31 05:28:47;;;;;;;2.00;1.55;;;-0.40;99.90;;;;;;1929961;71;21248;-71
2020/12/31 05:31:13;;;;;;;1.75;1.42;;;-0.40;99.90;;;;;;1961969;70;21066;-73
2020/12/31 05:33:39;;;;;;;3.10;1.75;;;-0.40;99.90;;;;;;1948124;70;21074;-73
2020/12/31 05:36:06;;;;;;;1.60;1.42;;;-0.40;99.90;;;;;;1968404;71;21063;-72
2020/12/31 05:38:32;;;;;;;2.12;1.70;;;-0.40;99.90;;;;;;1982501;71;21259;-72
2020/12/31 05:40:58;;;;;;;1.67;1.57;;;-0.40;99.90;;;;;;1960845;71;21039;-72
2020/12/31 05:43:24;;;;;;;4.28;1.67;;;-0.40;99.90;;;;;;1955230;70;21066;-71
2020/12/31 05:45:50;;;;;;;2.05;1.47;;;-0.50;99.90;;;;;;1963443;70;21193;-72
2020/12/31 05:48:16;;;;;;;3.35;1.87;;;-0.40;99.90;;;;;;1950086;71;21063;-71
2020/12/31 05:50:42;;;;;;;2.55;1.98;;;-0.50;99.90;;;;;;1948527;71;21075;-72
2020/12/31 05:53:08;;;;;;;3.77;1.80;;;-0.50;99.90;;;;;;1961210;70;21218;-72
2020/12/31 05:55:35;;;;;;;2.27;1.80;;;-0.50;99.90;;;;;;1957983;72;21043;-73
2020/12/31 05:58:01;;;;;;;1.87;1.60;;;-0.50;99.90;;;;;;1963818;70;21202;-72
2020/12/31 06:00:27;;;;;;;1.50;1.40;;;-0.60;99.90;;;;;;1942878;72;21132;-73
2020/12/31 06:02:53;;;;;;;5.92;1.55;;;-0.60;99.90;;;;;;1964315;70;21172;-73
2020/12/31 06:05:19;;;;;;;2.72;1.52;;;-0.70;99.90;;;;;;1968172;71;21071;-72
2020/12/31 06:07:45;;;;;;;1.55;1.37;;;-0.70;99.90;;;;;;1964359;70;21066;-72
2020/12/31 06:10:12;;;;;;;1.80;1.60;;;-0.70;99.90;;;;;;1960003;70;21078;-74
2020/12/31 06:12:38;;;;;;;4.80;2.52;;;-0.70;99.90;;;;;;1953198;70;21511;-73
2020/12/31 06:15:04;;;;;;;2.98;2.22;;;-0.80;99.90;;;;;;1960574;71;21160;-73
2020/12/31 06:17:30;;;;;;;2.42;1.92;;;-0.70;99.90;;;;;;1950886;71;21067;-71
2020/12/31 06:19:57;;;;;;;3.15;1.98;;;-0.60;99.90;;;;;;1961446;71;21044;-72
2020/12/31 06:22:23;;;;;;;2.12;1.90;;;-0.50;99.90;;;;;;1948647;71;21058;-72
2020/12/31 06:24:49;;;;;;;4.60;2.02;;;-0.40;99.90;;;;;;1952660;72;21070;-73
2020/12/31 06:27:15;;;;;;;2.72;2.15;;;-0.40;99.90;;;;;;1977665;71;21132;-72
2020/12/31 06:29:41;;;;;;;2.40;1.80;;;-0.40;99.90;;;;;;1969343;71;21137;-73
2020/12/31 06:32:07;;;;;;;5.97;3.20;;;-0.40;99.90;;;;;;1951334;70;21071;-72
2020/12/31 06:34:33;;;;;;;3.60;3.00;;;-0.40;99.90;;;;;;1965783;70;21032;-72
2020/12/31 06:37:00;;;;;;;3.40;2.45;;;-0.50;99.90;;;;;;1951826;71;21564;-72
2020/12/31 06:39:26;;;;;;;3.83;2.90;;;-0.40;99.90;;;;;;1959360;72;21539;-72
2020/12/31 06:41:52;;;;;;;2.62;2.20;;;-0.50;99.90;;;;;;1971067;71;21466;-73
2020/12/31 06:44:19;;;;;;;2.47;2.17;;;-0.50;99.90;;;;;;1950089;71;21508;-73
2020/12/31 06:46:46;;;;;;;2.52;2.02;;;-0.50;99.90;;;;;;1960483;71;21140;-72
2020/12/31 06:49:12;;;;;;;2.05;1.85;;;-0.60;99.90;;;;;;1959606;72;21074;-72
2020/12/31 06:51:38;;;;;;;3.62;2.40;;;-0.60;99.90;;;;;;1964128;70;21073;-72
2020/12/31 06:54:04;;;;;;;2.77;1.82;;;-0.60;99.90;;;;;;1959756;71;21141;-73
2020/12/31 06:56:30;;;;;;;3.02;2.20;;;-0.60;99.90;;;;;;1950095;71;21068;-72
2020/12/31 06:58:56;;;;;;;2.17;1.98;;;-0.60;99.90;;;;;;1953035;71;21032;-72
2020/12/31 07:01:23;;;;;;;3.37;2.40;;;-0.70;99.90;;;;;;1947011;71;21144;-73
2020/12/31 07:03:49;;;;;;;2.62;1.98;;;-0.60;99.90;;;;;;1944479;72;21156;-72
2020/12/31 07:06:15;;;;;;;3.72;2.40;;;-0.60;99.90;;;;;;1968397;70;21118;-73
2020/12/31 07:08:44;;;;;;;3.02;2.00;;;-0.60;99.90;;;;;;1956293;70;21140;-73
2020/12/31 07:11:09;;;;;;;2.12;1.92;;;-0.60;99.90;;;;;;1941324;72;21507;-72
2020/12/31 07:13:35;;;;;;;4.30;2.33;;;-0.60;99.90;;;;;;1959918;72;21505;-72
2020/12/31 07:16:02;;;;;;;2.50;2.17;;;-0.60;99.90;;;;;;1960225;71;21074;-73
2020/12/31 07:18:28;;;;;;;3.17;1.98;;;-0.60;99.90;;;;;;1935466;72;21122;-72
2020/12/31 07:20:54;;;;;;;4.28;2.35;;;-0.50;99.90;;;;;;1963627;72;21059;-72
2020/12/31 07:23:20;;;;;;;2.70;2.15;;;-0.50;99.90;;;;;;1965204;71;21031;-72
2020/12/31 07:25:46;;;;;;;4.55;2.15;;;-0.50;99.90;;;;;;1965052;70;21062;-72
2020/12/31 07:28:12;;;;;;;4.08;1.95;;;-0.50;99.90;;;;;;1967901;70;21140;-73
2020/12/31 07:30:38;;;;;;;2.42;1.80;;;-0.50;99.90;;;;;;1955665;70;21059;-72
2020/12/31 07:33:05;;;;;;;3.20;2.33;;;-0.50;99.90;;;;;;1951903;71;21136;-72
2020/12/31 07:35:32;;;;;;;2.35;2.10;;;-0.40;99.90;;;;;;1954197;72;21644;-73
2020/12/31 07:37:58;;;;;;;4.78;2.37;;;-0.40;99.90;;;;;;1962014;71;21066;-72
2020/12/31 07:40:24;;;;;;;3.10;2.02;;;-0.40;99.90;;;;;;1955596;70;21148;-73
2020/12/31 07:42:50;;;;;;;4.12;2.10;;;-0.30;99.90;;;;;;1963394;71;21062;-75
2020/12/31 07:45:16;;;;;;;3.77;1.98;;;-0.20;99.90;;;;;;1950845;71;21115;-77
2020/12/31 07:47:42;;;;;;;4.75;2.20;;;-0.20;99.90;;;;;;1961982;72;21039;-75
2020/12/31 07:50:08;;;;;;;5.92;2.65;;;-0.10;99.90;;;;;;1951569;71;21140;-75
2020/12/31 07:52:34;;;;;;;3.10;2.40;;;0.00;99.90;;;;;;1944787;70;21063;-75
2020/12/31 07:55:01;;;;;;;4.22;2.80;;;0.00;99.90;;;;;;1950708;71;21051;-75
2020/12/31 07:57:27;;;;;;;2.95;2.47;;;0.10;99.90;;;;;;1966941;70;21074;-74
2020/12/31 07:59:53;;;;;;;4.67;2.85;;;0.20;99.90;;;;;;1959177;72;21116;-72
2020/12/31 08:02:19;;;;;;;4.83;2.35;;;0.30;99.90;;;;;;1951150;71;21040;-73
2020/12/31 08:04:45;;;;;;;4.33;2.72;;;0.30;99.90;;;;;;1959402;70;21079;-72
2020/12/31 08:07:11;;;;;;;4.17;2.98;;;0.50;99.90;;;;;;1967795;70;21139;-73
2020/12/31 08:09:37;;;;;;;7.10;3.30;;;0.50;99.90;;;;;;1956270;71;21524;-73
2020/12/31 08:12:03;;;;;;;11.18;2.70;;;0.50;99.90;;;;;;1975519;71;21552;-75
2020/12/31 08:14:30;;;;;;;3.60;2.33;;;0.70;99.90;;;;;;1979935;71;21454;-74
2020/12/31 08:16:56;;;;;;;5.70;2.87;;;0.70;99.90;;;;;;1944503;72;21070;-74
2020/12/31 08:19:22;;;;;;;5.83;2.70;;;0.80;99.90;;;;;;1952246;71;21074;-74
2020/12/31 08:21:48;;;;;;;6.50;2.83;;;1.00;99.90;;;;;;1944350;70;21154;-74
2020/12/31 08:24:14;;;;;;;5.10;3.17;;;1.10;99.90;;;;;;1963028;71;21135;-74
2020/12/31 08:26:41;;;;;;;3.25;2.30;;;1.10;99.90;;;;;;1947460;72;21133;-74
2020/12/31 08:29:07;;;;;;;4.10;2.98;;;1.20;99.90;;;;;;1966569;70;21470;-75
2020/12/31 08:31:33;;;;;;;3.65;3.17;;;1.30;99.90;;;;;;1961509;71;21596;-75
2020/12/31 08:33:59;;;;;;;10.58;3.98;;;1.50;99.90;;;;;;1966203;70;21180;-76
2020/12/31 08:36:26;;;;;;;4.50;2.83;;;1.50;99.90;;;;;;1939855;70;21189;-75
2020/12/31 08:38:53;;;;;;;4.95;2.92;;;1.60;99.90;;;;;;1951199;71;21131;-75
2020/12/31 08:41:20;;;;;;;4.80;3.42;;;1.70;99.90;;;;;;1955575;72;21074;-76
2020/12/31 08:43:46;;;;;;;4.30;3.27;;;1.70;99.90;;;;;;1956109;71;21055;-74
2020/12/31 08:46:12;;;;;;;4.87;3.05;;;1.80;99.90;;;;;;1967160;70;21173;-75
2020/12/31 08:48:38;;;;;;;4.95;3.30;;;1.90;99.90;;;;;;1954539;71;21131;-74
2020/12/31 08:51:04;;;;;;;3.90;2.92;;;2.10;99.90;;;;;;1958874;70;21136;-75
2020/12/31 08:53:30;;;;;;;5.62;3.33;;;2.10;99.90;;;;;;1950106;72;21080;-73
2020/12/31 08:55:56;;;;;;;4.35;2.85;;;2.30;99.90;;;;;;1968297;70;21071;-76
2020/12/31 08:58:22;;;;;;;3.95;3.17;;;2.40;99.90;;;;;;1974467;71;21062;-75
2020/12/31 09:00:48;;;;;;;5.92;3.58;;;2.40;99.90;;;;;;1984356;71;21544;-75
2020/12/31 09:03:15;;;;;;;5.83;3.22;;;2.50;99.90;;;;;;1987032;70;21423;-75
2020/12/31 09:05:41;;;;;;;4.22;3.15;;;2.60;99.90;;;;;;1986631;70;21530;-75
2020/12/31 09:08:07;;;;;;;4.97;3.67;;;2.60;99.90;;;;;;1989586;72;21107;-75
2020/12/31 09:10:33;;;;;;;7.85;3.70;;;2.60;99.90;;;;;;1986569;71;21042;-75
2020/12/31 09:12:59;;;;;;;4.78;3.08;;;2.70;99.90;;;;;;1974506;72;21070;-76
2020/12/31 09:15:25;;;;;;;6.97;3.22;;;2.80;99.90;;;;;;1988544;70;21102;-75
2020/12/31 09:17:51;;;;;;;5.67;3.52;;;2.80;99.90;;;;;;1987047;72;21046;-75
2020/12/31 09:20:18;;;;;;;9.05;4.72;;;2.90;99.90;;;;;;1986098;70;21072;-74
2020/12/31 09:22:44;;;;;;;7.05;3.72;;;2.90;99.90;;;;;;1985430;72;21532;-75
2020/12/31 09:25:10;;;;;;;6.47;3.72;;;2.90;99.90;;;;;;1988761;71;21423;-73
2020/12/31 09:27:36;;;;;;;7.70;4.22;;;2.90;99.90;;;;;;1984730;72;21019;-75
2020/12/31 09:30:02;;;;;;;7.67;3.60;;;3.00;99.90;;;;;;1991486;71;21131;-75
2020/12/31 09:32:28;;;;;;;7.80;3.42;;;3.10;99.90;;;;;;1989677;70;21123;-72
2020/12/31 09:34:55;;;;;;;6.58;3.72;;;3.20;99.90;;;;;;1982241;72;21118;-73
2020/12/31 09:37:21;;;;;;;15.83;5.70;;;3.30;99.90;;;;;;1991824;71;21124;-70
2020/12/31 09:39:47;;;;;;;43.30;10.90;;;3.30;99.90;;;;;;1990355;71;21033;-74
2020/12/31 09:42:13;;;;;;;11.88;4.12;;;3.40;99.90;;;;;;1991285;71;21035;-71
2020/12/31 09:44:39;;;;;;;6.55;3.80;;;3.40;99.90;;;;;;1983710;71;21042;-75
2020/12/31 09:47:05;;;;;;;6.05;3.50;;;3.50;99.90;;;;;;1987503;70;21164;-74
2020/12/31 09:49:31;;;;;;;7.15;4.42;;;3.60;99.90;;;;;;1989746;70;21058;-75
2020/12/31 09:51:57;;;;;;;8.15;3.42;;;3.60;99.90;;;;;;1977309;71;21256;-73
2020/12/31 09:54:23;;;;;;;6.83;3.55;;;3.70;99.90;;;;;;1979903;71;21131;-73
2020/12/31 09:56:50;;;;;;;5.45;3.65;;;3.80;99.90;;;;;;1968149;72;21496;-79
2020/12/31 09:59:17;;;;;;;4.47;3.02;;;3.90;99.90;;;;;;1958582;72;21134;-77
2020/12/31 10:01:45;;;;;;;7.70;4.10;;;3.90;99.90;;;;;;1973003;72;21137;-77
2020/12/31 10:04:11;;;;;;;3.70;3.15;;;3.90;99.90;;;;;;1966470;72;21093;-78
2020/12/31 10:06:37;;;;;;;4.42;3.30;;;3.90;99.90;;;;;;1976709;72;21072;-80
2020/12/31 10:09:03;;;;;;;11.57;4.62;;;4.00;99.90;;;;;;1954809;72;21055;-76
2020/12/31 10:11:29;;;;;;;7.50;3.92;;;4.10;99.90;;;;;;1958815;71;21107;-76
2020/12/31 10:13:55;;;;;;;5.97;3.60;;;4.10;99.90;;;;;;1964384;71;21059;-76
2020/12/31 10:16:22;;;;;;;5.30;3.37;;;4.00;99.90;;;;;;1957235;71;21143;-76
2020/12/31 10:18:48;;;;;;;5.45;3.55;;;4.20;99.90;;;;;;1943642;71;21061;-76
2020/12/31 10:21:14;;;;;;;5.72;3.47;;;4.20;99.90;;;;;;1946893;71;21070;-78
2020/12/31 10:23:40;;;;;;;3.47;3.08;;;4.40;99.90;;;;;;1951981;71;21073;-79
2020/12/31 10:26:06;;;;;;;9.10;4.30;;;4.30;99.90;;;;;;1955960;71;21156;-77
2020/12/31 10:28:32;;;;;;;6.22;3.92;;;4.40;99.90;;;;;;1939960;71;21428;-76
2020/12/31 10:30:58;;;;;;;10.93;6.05;;;4.60;99.90;;;;;;1957278;72;21450;-76
2020/12/31 10:33:24;;;;;;;8.50;4.90;;;4.90;99.90;;;;;;1963766;71;21482;-76
2020/12/31 10:35:51;;;;;;;5.65;4.03;;;5.00;99.90;;;;;;1962281;71;21064;-79
2020/12/31 10:38:17;;;;;;;9.50;5.25;;;5.20;99.90;;;;;;1947882;72;21070;-81
2020/12/31 10:40:43;;;;;;;8.93;4.50;;;5.30;99.90;;;;;;1948420;71;21039;-77
2020/12/31 10:43:09;;;;;;;7.37;4.00;;;5.40;99.90;;;;;;1952199;71;21068;-76
2020/12/31 10:45:35;;;;;;;4.15;2.90;;;5.50;99.90;;;;;;1954715;71;21097;-77
2020/12/31 10:48:01;;;;;;;4.95;3.20;;;5.30;99.90;;;;;;1948143;71;21063;-76
2020/12/31 10:50:28;;;;;;;4.08;2.95;;;5.10;99.90;;;;;;1960173;71;21267;-77
2020/12/31 10:52:55;;;;;;;5.72;3.47;;;5.10;99.90;;;;;;1955848;71;21067;-78
2020/12/31 10:55:22;;;;;;;4.70;2.98;;;4.90;99.90;;;;;;1957954;71;21060;-79
2020/12/31 10:57:48;;;;;;;5.20;2.92;;;4.80;99.90;;;;;;1947286;71;21217;-78
2020/12/31 11:00:14;;;;;;;7.67;3.83;;;4.70;99.90;;;;;;1954885;71;21135;-79
2020/12/31 11:02:40;;;;;;;4.72;3.30;;;4.70;99.90;;;;;;1962941;71;21128;-79
2020/12/31 11:05:07;;;;;;;4.62;3.25;;;4.60;99.90;;;;;;1958220;71;21151;-79
2020/12/31 11:07:33;;;;;;;4.92;2.87;;;4.50;99.90;;;;;;1963173;71;21136;-81
2020/12/31 11:09:59;;;;;;;5.10;3.22;;;4.50;99.90;;;;;;1962802;71;21528;-77
2020/12/31 11:12:25;;;;;;;2.70;2.30;;;4.40;99.90;;;;;;1944654;70;21532;-76
2020/12/31 11:14:51;;;;;;;3.33;2.37;;;4.40;99.90;;;;;;1953523;70;21431;-76
2020/12/31 11:17:17;;;;;;;2.58;2.33;;;4.40;99.90;;;;;;1961644;70;21070;-84
2020/12/31 11:19:43;;;;;;;2.95;2.08;;;4.30;99.90;;;;;;1944254;71;21053;-75
2020/12/31 11:22:10;;;;;;;3.70;2.50;;;4.10;99.90;;;;;;1955717;71;21069;-81
2020/12/31 11:24:36;;;;;;;2.15;1.95;;;4.10;99.90;;;;;;1962194;71;21086;-82
2020/12/31 11:27:02;;;;;;;3.30;2.15;;;4.20;99.90;;;;;;1959671;71;21137;-79
2020/12/31 11:29:28;;;;;;;2.90;2.05;;;4.10;99.90;;;;;;1956623;72;21071;-78
2020/12/31 11:31:54;;;;;;;2.80;2.00;;;4.00;99.90;;;;;;1949369;71;21430;-77
2020/12/31 11:34:21;;;;;;;3.85;2.47;;;4.30;99.90;;;;;;1955904;71;21516;-81
2020/12/31 11:36:47;;;;;;;2.80;2.17;;;4.60;99.90;;;;;;1963812;70;21145;-78
2020/12/31 11:39:13;;;;;;;2.72;1.77;;;4.70;99.90;;;;;;1979094;71;21063;-77
2020/12/31 11:41:39;;;;;;;3.75;2.33;;;4.80;99.90;;;;;;1963144;71;21172;-78
2020/12/31 11:44:06;;;;;;;2.50;2.25;;;4.80;99.90;;;;;;1948056;71;21123;-78
2020/12/31 11:46:33;;;;;;;2.65;2.25;;;5.10;99.90;;;;;;1964353;71;21062;-79
2020/12/31 11:48:59;;;;;;;3.35;2.42;;;5.10;99.90;;;;;;1956050;71;21054;-79
2020/12/31 11:51:25;;;;;;;3.10;1.87;;;5.10;99.90;;;;;;1953093;71;21066;-76
2020/12/31 11:53:51;;;;;;;3.35;2.17;;;5.20;99.90;;;;;;1959114;71;21074;-74
2020/12/31 11:56:17;;;;;;;3.92;2.30;;;5.00;99.90;;;;;;1947776;72;21055;-74
2020/12/31 11:58:43;;;;;;;8.68;1.72;;;5.00;99.90;;;;;;1969886;71;21053;-77
2020/12/31 12:01:09;;;;;;;3.35;2.05;;;5.10;99.90;;;;;;1955092;71;21062;-76
2020/12/31 12:03:36;;;;;;;2.22;2.00;;;5.10;99.90;;;;;;1970185;71;21440;-76
2020/12/31 12:06:02;;;;;;;4.05;2.42;;;5.20;99.90;;;;;;1953063;71;21422;-76
2020/12/31 12:08:28;;;;;;;2.20;1.80;;;5.10;99.90;;;;;;1945029;71;21144;-77
2020/12/31 12:10:54;;;;;;;3.05;2.02;;;5.00;99.90;;;;;;1958741;71;21136;-76
2020/12/31 12:13:21;;;;;;;4.40;2.58;;;5.10;99.90;;;;;;1958379;71;21074;-75
2020/12/31 12:15:47;;;;;;;2.90;1.75;;;5.00;99.90;;;;;;1965128;71;21032;-75
2020/12/31 12:18:13;;;;;;;1.92;1.82;;;5.00;99.90;;;;;;1953536;71;21027;-76
2020/12/31 12:20:41;;;;;;;3.50;2.40;;;4.80;99.90;;;;;;1951734;71;21082;-78
2020/12/31 12:23:07;;;;;;;2.75;2.35;;;4.80;99.90;;;;;;1954745;71;21074;-75
2020/12/31 12:25:33;;;;;;;2.90;2.02;;;4.90;99.90;;;;;;1981382;70;21032;-76
2020/12/31 12:27:59;;;;;;;2.08;1.87;;;4.90;99.90;;;;;;1963578;72;21062;-78
2020/12/31 12:30:25;;;;;;;5.55;1.95;;;4.90;99.90;;;;;;1961621;71;21194;-76
2020/12/31 12:32:51;;;;;;;2.55;2.05;;;5.00;99.90;;;;;;1962173;71;21257;-75
2020/12/31 12:35:18;;;;;;;2.00;1.80;;;4.90;99.90;;;;;;1950523;71;21490;-75
2020/12/31 12:37:44;;;;;;;2.95;2.00;;;4.80;99.90;;;;;;1958107;71;21451;-76
2020/12/31 12:40:10;;;;;;;3.33;2.08;;;4.80;99.90;;;;;;1952587;71;21434;-76
2020/12/31 12:42:36;;;;;;;6.30;3.70;;;4.80;99.90;;;;;;1962928;71;21132;-77
2020/12/31 12:45:03;;;;;;;5.37;2.75;;;4.90;99.90;;;;;;1969051;72;21054;-77
2020/12/31 12:47:29;;;;;;;5.08;2.37;;;4.90;99.90;;;;;;1976238;71;21135;-77
2020/12/31 12:49:55;;;;;;;2.77;2.20;;;4.80;99.90;;;;;;1979435;72;21072;-77